Pagrindinis puslapis
METAR-TAF:

METAR-TAF

Oro uostai :

El-Tor, Egiptas

platuma: 28-14N, ilguma: 032-37E, Aukštis: 21 m

Dabartinis oras

Ataskaita buvo paskelbta 1 valandą ir 3 minutes, ne 04:00 UTC
Vėjas 11 kt iš Šiaurės Vakarų
Temperatūra 18°C
Drėgmė 83%
Slėgis 1010 hPa
Matomumas 10 km arba daugiau
nėra debesų žemiau 1500 m ir nėra kamuolinių lietaus debesų

METAR: HETR 300400Z 32011KT CAVOK 18/15 Q1010

Laikas: 07:03 (05:03 UTC)

Prognozė

Ataskaita buvo paskelbta 6 valandos ir 3 minutes, ne 23:00 UTC
Prognozė galioja nuo 30 metu 00 UTC su 31 metu 06 UTC
Vėjas 15 kt iš Vakarų/Šiaurės Vakarų
Matomumas 10 km arba daugiau
nėra debesų žemiau 1500 m ir nėra kamuolinių lietaus debesų
Laikinai
nuo 30 metu 09 UTC su 30 metu 16 UTC
Matomumas: 6000 m

TAF: HETR 292300Z 3000/3106 30015KT CAVOK TEMPO 3009/3016 6000 NSC

Orai ataskaitas ir orų prognozės (METAR, TAF).

turimą stotys yra geltonos ir raudonos taškus žemėlapyje.

Perkelti pele per norėdami pamatyti stoties vardą.

Tada spustelėkite, norėdami matyti oro stebėjimo ir prognozės.

Norėdami pakeisti žemėlapį: spustelėkite ant žalios mygtukų su juodo kryžiaus žemyn,; žalią mygtuką su brūkšneliu, jei norite nutolinti; arba žalių rodyklių gretimoms žemėlapius.


METAR-TAF: